createdAt,value
2022-09-14T00:00:13.535Z,14.62
2022-09-14T00:03:17.410Z,14.61
2022-09-14T00:06:19.137Z,14.64
2022-09-14T00:09:23.530Z,14.66
2022-09-14T00:12:24.997Z,14.66
2022-09-14T00:15:27.120Z,14.65
2022-09-14T00:18:28.709Z,14.58
2022-09-14T00:21:30.109Z,14.50
2022-09-14T00:24:31.565Z,14.38
2022-09-14T00:27:33.143Z,14.31
2022-09-14T00:30:34.560Z,14.29
2022-09-14T00:33:36.687Z,14.25
2022-09-14T00:36:46.908Z,14.24
2022-09-14T00:39:48.647Z,14.23
2022-09-14T00:42:50.097Z,14.20
2022-09-14T00:45:52.599Z,14.20
2022-09-14T00:48:56.011Z,14.23
2022-09-14T00:52:17.609Z,14.21
2022-09-14T00:55:22.874Z,14.23
2022-09-14T00:58:24.332Z,14.25
2022-09-14T01:01:26.771Z,14.28
2022-09-14T01:04:28.641Z,14.27
2022-09-14T01:07:39.844Z,14.27
2022-09-14T01:11:15.501Z,14.27
2022-09-14T01:14:30.705Z,14.29
2022-09-14T01:17:46.445Z,14.32
2022-09-14T01:20:57.846Z,14.35
2022-09-14T01:24:26.038Z,14.37
2022-09-14T01:27:34.636Z,14.37
2022-09-14T01:30:38.985Z,14.38
2022-09-14T01:33:49.855Z,14.38
2022-09-14T01:36:57.792Z,14.39
2022-09-14T01:40:16.451Z,14.40
2022-09-14T01:43:22.285Z,14.38
2022-09-14T01:46:31.825Z,14.39
2022-09-14T01:49:39.570Z,14.43
2022-09-14T01:52:47.115Z,14.41
2022-09-14T01:55:56.801Z,14.40
2022-09-14T01:59:10.032Z,14.37
2022-09-14T02:02:39.187Z,14.34
2022-09-14T02:05:50.942Z,14.32
2022-09-14T02:08:52.973Z,14.37
2022-09-14T02:11:55.687Z,14.34
2022-09-14T02:14:57.142Z,14.32
2022-09-14T02:17:58.620Z,14.28
2022-09-14T02:21:12.025Z,14.27
2022-09-14T02:24:14.151Z,14.23
2022-09-14T02:27:15.907Z,14.21
2022-09-14T02:30:17.817Z,14.18
2022-09-14T02:33:30.996Z,14.18
2022-09-14T02:36:49.862Z,14.19
2022-09-14T02:40:13.338Z,14.17
2022-09-14T02:43:43.749Z,14.17
2022-09-14T02:47:01.205Z,14.14
2022-09-14T02:50:20.030Z,14.18
2022-09-14T02:53:31.996Z,14.19
2022-09-14T02:56:35.957Z,14.20
2022-09-14T02:59:37.360Z,14.22
2022-09-14T03:02:38.753Z,14.22
2022-09-14T03:05:40.504Z,14.21
2022-09-14T03:08:42.372Z,14.20
2022-09-14T03:11:43.803Z,14.20
2022-09-14T03:14:45.256Z,14.20
2022-09-14T03:17:48.575Z,14.25
2022-09-14T03:20:50.033Z,14.17
2022-09-14T03:23:52.912Z,14.13
2022-09-14T03:26:54.289Z,14.10
2022-09-14T03:29:55.708Z,14.10
2022-09-14T03:32:58.911Z,14.09
2022-09-14T03:36:01.415Z,14.07
2022-09-14T03:39:02.855Z,14.08
2022-09-14T03:42:04.440Z,14.02
2022-09-14T03:45:06.597Z,14.03
2022-09-14T03:48:08.051Z,14.01
2022-09-14T03:51:11.272Z,14.04
2022-09-14T03:54:12.664Z,14.01
2022-09-14T03:57:15.528Z,14.01
2022-09-14T04:00:17.177Z,13.97
2022-09-14T04:03:18.857Z,13.96
2022-09-14T04:06:20.300Z,13.97
2022-09-14T04:09:21.808Z,13.97
2022-09-14T04:12:23.266Z,13.93
2022-09-14T04:15:24.739Z,13.92
2022-09-14T04:18:26.969Z,13.88
2022-09-14T04:21:28.367Z,13.83
2022-09-14T04:24:30.859Z,13.78
2022-09-14T04:27:32.607Z,13.78
2022-09-14T04:30:34.021Z,13.78
2022-09-14T04:33:36.112Z,13.81
2022-09-14T04:36:37.491Z,13.82
2022-09-14T04:39:38.904Z,13.83
2022-09-14T04:42:40.283Z,13.87
2022-09-14T04:45:41.709Z,13.89
2022-09-14T04:48:43.425Z,13.88
2022-09-14T04:51:45.076Z,13.87
2022-09-14T04:54:46.462Z,13.88
2022-09-14T04:57:47.844Z,13.89
2022-09-14T05:00:49.260Z,13.90
2022-09-14T05:03:51.381Z,13.92
2022-09-14T05:06:52.785Z,13.93
2022-09-14T05:09:54.168Z,13.95
2022-09-14T05:12:56.026Z,13.94
2022-09-14T05:16:06.307Z,13.91
2022-09-14T05:19:10.910Z,13.89
2022-09-14T05:22:12.317Z,13.89
2022-09-14T05:25:13.733Z,13.92
2022-09-14T05:28:15.116Z,13.97
2022-09-14T05:31:16.577Z,14.02
2022-09-14T05:34:18.055Z,14.03
2022-09-14T05:37:19.462Z,14.00
2022-09-14T05:40:20.910Z,13.97
2022-09-14T05:43:22.413Z,13.96
2022-09-14T05:46:23.904Z,13.95
2022-09-14T05:49:25.333Z,13.99
2022-09-14T05:52:29.512Z,13.99
2022-09-14T05:55:30.880Z,14.02
2022-09-14T05:58:32.394Z,14.05
2022-09-14T06:01:33.892Z,14.14
2022-09-14T06:04:35.372Z,14.22
2022-09-14T06:07:36.799Z,14.31
2022-09-14T06:10:38.192Z,14.44
2022-09-14T06:13:39.614Z,14.50
2022-09-14T06:16:41.011Z,14.50
2022-09-14T06:19:42.414Z,14.44
2022-09-14T06:22:43.841Z,14.44
2022-09-14T06:25:45.272Z,14.38
2022-09-14T06:28:47.345Z,14.31
2022-09-14T06:31:48.815Z,14.26
2022-09-14T06:34:50.528Z,14.25
2022-09-14T06:37:52.798Z,14.25
2022-09-14T06:40:59.473Z,14.29
2022-09-14T06:44:01.266Z,14.36
2022-09-14T06:47:02.824Z,14.37
2022-09-14T06:50:04.725Z,14.40
2022-09-14T06:53:06.158Z,14.36
2022-09-14T06:56:07.663Z,14.39
2022-09-14T06:59:11.077Z,14.48
2022-09-14T07:02:13.676Z,14.59
2022-09-14T07:05:15.128Z,14.69
2022-09-14T07:08:16.620Z,14.74
2022-09-14T07:11:20.189Z,14.88
2022-09-14T07:14:21.744Z,14.91
2022-09-14T07:17:23.187Z,14.94
2022-09-14T07:20:24.600Z,15.02
2022-09-14T07:23:26.008Z,15.08
2022-09-14T07:26:30.419Z,15.02
2022-09-14T07:29:31.888Z,15.07
2022-09-14T07:32:33.317Z,15.12
2022-09-14T07:35:34.716Z,15.10
2022-09-14T07:38:51.692Z,15.15
2022-09-14T07:41:54.211Z,15.30
2022-09-14T07:44:55.613Z,15.31
2022-09-14T07:47:57.018Z,15.38
2022-09-14T07:51:07.145Z,15.47
2022-09-14T07:54:11.945Z,15.58
2022-09-14T07:57:13.363Z,15.72
2022-09-14T08:00:15.435Z,15.80
2022-09-14T08:03:16.809Z,15.88
2022-09-14T08:06:23.594Z,15.97
2022-09-14T08:09:25.008Z,16.00
2022-09-14T08:12:26.401Z,16.09
2022-09-14T08:15:28.686Z,16.30
2022-09-14T08:18:31.675Z,16.28
2022-09-14T08:21:33.966Z,16.39
2022-09-14T08:24:35.394Z,16.31
2022-09-14T08:27:36.873Z,16.50
2022-09-14T08:30:38.280Z,16.43
2022-09-14T08:33:42.393Z,16.48
2022-09-14T08:36:45.819Z,16.59
2022-09-14T08:39:51.483Z,16.45
2022-09-14T08:42:56.915Z,16.50
2022-09-14T08:46:04.361Z,16.57
2022-09-14T08:49:32.458Z,16.58
2022-09-14T08:52:54.716Z,16.84
2022-09-14T08:56:02.411Z,17.00
2022-09-14T08:59:36.074Z,16.82
2022-09-14T09:02:48.402Z,16.78
2022-09-14T09:06:02.738Z,16.73
2022-09-14T09:09:42.668Z,16.80
2022-09-14T09:12:50.157Z,16.70
2022-09-14T09:15:55.014Z,16.66
2022-09-14T09:19:06.325Z,16.51
2022-09-14T09:22:14.851Z,16.57
2022-09-14T09:25:45.502Z,16.65
2022-09-14T09:28:54.270Z,16.83
2022-09-14T09:31:56.872Z,16.72
2022-09-14T09:35:24.470Z,16.48
2022-09-14T09:38:35.051Z,16.57
2022-09-14T09:41:51.171Z,16.58
2022-09-14T09:45:04.122Z,16.52
2022-09-14T09:48:10.347Z,16.72
2022-09-14T09:51:22.157Z,16.79
2022-09-14T09:54:30.998Z,17.10
2022-09-14T09:57:35.516Z,17.22
2022-09-14T10:00:37.033Z,17.25
2022-09-14T10:03:40.068Z,17.19
2022-09-14T10:06:44.394Z,17.09
2022-09-14T10:09:57.530Z,17.19
2022-09-14T10:12:59.093Z,17.07
2022-09-14T10:16:07.476Z,17.31
2022-09-14T10:19:21.350Z,17.44
2022-09-14T10:22:31.244Z,17.53
2022-09-14T10:25:32.730Z,17.48
2022-09-14T10:28:34.269Z,17.57
2022-09-14T10:31:36.296Z,17.63
2022-09-14T10:34:37.866Z,17.53
2022-09-14T10:38:18.319Z,17.56
2022-09-14T10:41:35.494Z,17.84
2022-09-14T10:45:17.487Z,18.06
2022-09-14T10:48:45.560Z,17.89
2022-09-14T10:52:23.070Z,17.93
2022-09-14T10:55:55.242Z,18.05
2022-09-14T10:59:15.514Z,17.92
2022-09-14T11:02:38.679Z,17.97
2022-09-14T11:05:51.930Z,17.94
2022-09-14T11:09:02.745Z,17.90
2022-09-14T11:12:16.218Z,17.84
2022-09-14T11:15:20.649Z,17.92
2022-09-14T11:18:44.307Z,18.23
2022-09-14T11:22:23.956Z,18.38
2022-09-14T11:25:56.130Z,18.44
2022-09-14T11:29:00.268Z,18.71
2022-09-14T11:32:20.843Z,19.01
2022-09-14T11:35:36.225Z,18.90
2022-09-14T11:38:47.462Z,19.00
2022-09-14T11:42:09.095Z,19.23
2022-09-14T11:45:20.161Z,19.32
2022-09-14T11:48:43.741Z,19.58
2022-09-14T11:52:07.310Z,19.98
2022-09-14T11:55:15.162Z,20.16
2022-09-14T11:58:23.063Z,20.39
2022-09-14T12:01:28.898Z,20.29
2022-09-14T12:04:30.329Z,20.16
2022-09-14T12:07:40.879Z,19.97
2022-09-14T12:10:59.661Z,20.49
2022-09-14T12:14:15.112Z,20.72
2022-09-14T12:17:39.455Z,21.53
2022-09-14T12:20:44.543Z,21.90
2022-09-14T12:23:51.577Z,21.85
2022-09-14T12:26:53.067Z,21.96
2022-09-14T12:29:54.498Z,21.94
2022-09-14T12:32:55.974Z,21.53
2022-09-14T12:36:00.288Z,21.38
2022-09-14T12:39:18.899Z,20.72
2022-09-14T12:42:30.393Z,20.44
2022-09-14T12:45:51.954Z,20.50
2022-09-14T12:48:54.483Z,20.10
2022-09-14T12:51:59.016Z,20.35
2022-09-14T12:55:54.653Z,20.97
2022-09-14T12:59:02.793Z,20.66
2022-09-14T13:02:38.157Z,21.13
2022-09-14T13:05:43.632Z,21.12
2022-09-14T13:08:48.327Z,21.21
2022-09-14T13:11:56.094Z,20.90
2022-09-14T13:15:05.065Z,20.41
2022-09-14T13:18:12.184Z,20.96
2022-09-14T13:21:22.315Z,20.89
2022-09-14T13:24:26.767Z,21.45
2022-09-14T13:27:32.877Z,20.75
2022-09-14T13:30:35.681Z,21.01
2022-09-14T13:33:37.222Z,20.97
2022-09-14T13:36:43.783Z,20.41
2022-09-14T13:39:51.028Z,20.11
2022-09-14T13:42:52.620Z,20.23
2022-09-14T13:45:54.331Z,20.40
2022-09-14T13:48:56.046Z,20.85
2022-09-14T13:53:01.209Z,20.51
2022-09-14T13:56:35.738Z,21.23
2022-09-14T13:59:37.202Z,21.86
2022-09-14T14:02:47.770Z,21.32
2022-09-14T14:05:49.283Z,20.92
2022-09-14T14:09:00.292Z,21.13
2022-09-14T14:12:01.794Z,21.53
2022-09-14T14:15:11.115Z,21.84
2022-09-14T14:18:35.644Z,22.19
2022-09-14T14:21:37.165Z,21.78
2022-09-14T14:25:02.038Z,21.61
2022-09-14T14:28:15.046Z,22.00
2022-09-14T14:31:19.806Z,22.19
2022-09-14T14:34:26.713Z,22.16
2022-09-14T14:37:28.130Z,21.83
2022-09-14T14:40:29.693Z,21.87
2022-09-14T14:43:31.542Z,21.96
2022-09-14T14:46:33.177Z,21.75
2022-09-14T14:49:34.604Z,21.54
2022-09-14T14:52:36.013Z,21.33
2022-09-14T14:55:37.492Z,21.22
2022-09-14T14:58:46.116Z,20.86
2022-09-14T15:01:48.806Z,20.76
2022-09-14T15:04:50.206Z,20.67
2022-09-14T15:07:52.023Z,21.18
2022-09-14T15:10:56.914Z,21.39
2022-09-14T15:13:58.331Z,20.99
2022-09-14T15:17:00.286Z,20.51
2022-09-14T15:20:02.161Z,20.35
2022-09-14T15:23:03.848Z,20.40
2022-09-14T15:26:05.921Z,20.27
2022-09-14T15:29:07.382Z,20.45
2022-09-14T15:32:08.867Z,20.14
2022-09-14T15:35:12.735Z,19.91
2022-09-14T15:38:14.163Z,19.83
2022-09-14T15:41:15.556Z,20.05
2022-09-14T15:44:17.268Z,20.15
2022-09-14T15:47:18.725Z,20.13
2022-09-14T15:50:20.179Z,19.99
2022-09-14T15:53:21.627Z,19.90
2022-09-14T15:56:23.016Z,19.74
2022-09-14T15:59:25.099Z,19.89
2022-09-14T16:02:26.559Z,19.69
2022-09-14T16:05:28.076Z,19.51
2022-09-14T16:08:29.510Z,19.40
2022-09-14T16:11:31.399Z,19.30
2022-09-14T16:14:32.847Z,19.31
2022-09-14T16:17:34.367Z,19.40
2022-09-14T16:20:54.502Z,19.18
2022-09-14T16:23:58.718Z,19.10
2022-09-14T16:27:00.525Z,19.06
2022-09-14T16:30:01.937Z,18.86
2022-09-14T16:33:03.362Z,18.78
2022-09-14T16:36:09.084Z,18.66
2022-09-14T16:39:13.801Z,18.58
2022-09-14T16:42:16.358Z,18.43
2022-09-14T16:45:24.237Z,18.39
2022-09-14T16:48:25.731Z,18.38
2022-09-14T16:51:29.546Z,18.32
2022-09-14T16:54:30.990Z,18.26
2022-09-14T16:57:32.388Z,18.24
2022-09-14T17:00:34.756Z,18.29
2022-09-14T17:03:37.213Z,18.18
2022-09-14T17:06:40.826Z,18.11
2022-09-14T17:09:42.238Z,18.04
2022-09-14T17:12:43.634Z,17.99
2022-09-14T17:15:45.034Z,17.95
2022-09-14T17:18:48.063Z,17.94
2022-09-14T17:21:50.180Z,17.94
2022-09-14T17:24:51.585Z,17.84
2022-09-14T17:27:53.013Z,17.74
2022-09-14T17:30:57.269Z,17.57
2022-09-14T17:34:00.276Z,17.46
2022-09-14T17:37:01.669Z,17.36
2022-09-14T17:40:03.808Z,17.23
2022-09-14T17:43:05.300Z,17.08
2022-09-14T17:46:09.451Z,16.96
2022-09-14T17:49:10.996Z,16.79
2022-09-14T17:52:12.472Z,16.59
2022-09-14T17:55:13.913Z,16.48
2022-09-14T17:58:19.441Z,16.34
2022-09-14T18:01:22.075Z,16.17
2022-09-14T18:04:23.496Z,16.06
2022-09-14T18:07:25.534Z,15.97
2022-09-14T18:10:27.042Z,15.89
2022-09-14T18:13:28.419Z,15.84
2022-09-14T18:16:30.542Z,15.77
2022-09-14T18:19:31.981Z,15.63
2022-09-14T18:22:33.397Z,15.54
2022-09-14T18:25:34.789Z,15.43
2022-09-14T18:28:36.281Z,15.39
2022-09-14T18:31:37.738Z,15.31
2022-09-14T18:34:39.271Z,15.30
2022-09-14T18:37:41.296Z,15.20
2022-09-14T18:40:42.705Z,15.22
2022-09-14T18:43:46.246Z,15.10
2022-09-14T18:46:47.830Z,14.97
2022-09-14T18:49:50.007Z,14.88
2022-09-14T18:52:51.869Z,14.86
2022-09-14T18:55:53.294Z,14.84
2022-09-14T18:58:54.750Z,14.82
2022-09-14T19:01:56.243Z,14.78
2022-09-14T19:04:57.751Z,14.79
2022-09-14T19:07:59.409Z,14.82
2022-09-14T19:11:14.998Z,14.82
2022-09-14T19:14:16.437Z,14.79
2022-09-14T19:17:17.860Z,14.82
2022-09-14T19:20:19.254Z,14.93
2022-09-14T19:23:20.685Z,14.95
2022-09-14T19:26:22.102Z,14.93
2022-09-14T19:29:24.784Z,14.98
2022-09-14T19:32:26.447Z,14.91
2022-09-14T19:35:29.731Z,14.95
2022-09-14T19:38:31.276Z,14.99
2022-09-14T19:41:34.167Z,14.99
2022-09-14T19:44:35.620Z,14.93
2022-09-14T19:47:37.029Z,14.77
2022-09-14T19:50:38.476Z,14.65
2022-09-14T19:53:40.168Z,14.49
2022-09-14T19:56:41.973Z,14.39
2022-09-14T19:59:43.378Z,14.33
2022-09-14T20:02:45.721Z,14.26
2022-09-14T20:05:47.402Z,14.25
2022-09-14T20:09:10.593Z,14.23
2022-09-14T20:12:12.008Z,14.19
2022-09-14T20:15:13.458Z,14.24
2022-09-14T20:18:14.856Z,14.31
2022-09-14T20:21:19.311Z,14.38
2022-09-14T20:24:27.578Z,14.34
2022-09-14T20:27:29.021Z,14.27
2022-09-14T20:30:30.448Z,14.11
2022-09-14T20:33:32.513Z,13.92
2022-09-14T20:36:34.126Z,13.73
2022-09-14T20:39:35.586Z,13.55
2022-09-14T20:42:36.986Z,13.36
2022-09-14T20:45:38.397Z,13.23
2022-09-14T20:48:40.123Z,13.10
2022-09-14T20:51:42.441Z,12.95
2022-09-14T20:54:43.898Z,12.81
2022-09-14T20:57:45.262Z,12.69
2022-09-14T21:00:46.655Z,12.65
2022-09-14T21:03:49.463Z,12.66
2022-09-14T21:06:53.939Z,12.58
2022-09-14T21:09:55.332Z,12.52
2022-09-14T21:12:56.744Z,12.44
2022-09-14T21:15:58.250Z,12.35
2022-09-14T21:19:02.541Z,12.27
2022-09-14T21:22:04.029Z,12.25
2022-09-14T21:25:05.947Z,12.25
2022-09-14T21:28:07.400Z,12.34
2022-09-14T21:31:12.518Z,12.46
2022-09-14T21:34:14.062Z,12.57
2022-09-14T21:37:15.438Z,12.76
2022-09-14T21:40:18.268Z,12.96
2022-09-14T21:43:19.725Z,13.19
2022-09-14T21:46:21.307Z,13.40
2022-09-14T21:49:22.757Z,13.54
2022-09-14T21:52:24.206Z,13.68
2022-09-14T21:55:25.590Z,13.79
2022-09-14T21:58:27.001Z,13.88
2022-09-14T22:01:29.453Z,13.98
2022-09-14T22:04:30.949Z,14.06
2022-09-14T22:07:32.413Z,14.11
2022-09-14T22:10:34.630Z,14.16
2022-09-14T22:13:36.486Z,14.21
2022-09-14T22:16:38.661Z,14.24
2022-09-14T22:19:40.068Z,14.25
2022-09-14T22:22:43.741Z,14.28
2022-09-14T22:25:45.149Z,14.33
2022-09-14T22:28:48.501Z,14.39
2022-09-14T22:31:50.268Z,14.50
2022-09-14T22:34:51.650Z,14.55
2022-09-14T22:37:53.057Z,14.61
2022-09-14T22:40:56.241Z,14.58
2022-09-14T22:43:58.373Z,14.48
2022-09-14T22:46:59.764Z,14.39
2022-09-14T22:50:01.176Z,14.23
2022-09-14T22:53:02.621Z,14.15
2022-09-14T22:56:08.365Z,14.05
2022-09-14T22:59:10.172Z,13.92
2022-09-14T23:02:11.654Z,13.75
2022-09-14T23:05:13.070Z,13.58
2022-09-14T23:08:14.486Z,13.42
2022-09-14T23:11:15.917Z,13.35
2022-09-14T23:14:17.569Z,13.37
2022-09-14T23:17:18.971Z,13.36
2022-09-14T23:20:20.617Z,13.35
2022-09-14T23:23:22.062Z,13.24
2022-09-14T23:26:24.013Z,13.11
2022-09-14T23:29:25.602Z,12.99
2022-09-14T23:32:27.369Z,12.83
2022-09-14T23:35:29.172Z,12.68
2022-09-14T23:38:30.577Z,12.54
2022-09-14T23:41:32.052Z,12.39
2022-09-14T23:44:34.155Z,12.25
2022-09-14T23:47:35.608Z,12.14
2022-09-14T23:50:37.013Z,12.11
2022-09-14T23:53:39.884Z,12.04
2022-09-14T23:56:41.291Z,11.97
2022-09-14T23:59:42.897Z,11.92
